Time;durP1;ratioP1;P1;durP2;ratioP2;P2;SDS_P1;SDS_P2;PMS_P1;PMS_P2;Temp;Humidity;BMP_temperature;BMP_pressure;BME280_temperature;BME280_humidity;BME280_pressure;Samples;Min_cycle;Max_cycle;Signal;HPM_P1;HPM_P2
2022/01/22 00:01:03;;;;;;;1.13;0.80;;;;;;;;;;4987787;28;20034;-36
2022/01/22 00:03:29;;;;;;;1.27;0.77;;;;;;;;;;4988160;28;20493;-35
2022/01/22 00:05:54;;;;;;;1.63;0.90;;;;;;;;;;4988159;28;20064;-34
2022/01/22 00:08:20;;;;;;;2.75;1.08;;;;;;;;;;4987903;28;20121;-33
2022/01/22 00:10:47;;;;;;;1.45;0.90;;;;;;;;;;4988101;28;20041;-33
2022/01/22 00:15:45;;;;;;;2.38;1.17;;;;;;;;;;4987870;28;20046;-37
2022/01/22 00:18:11;;;;;;;1.60;1.20;;;;;;;;;;4987335;28;20038;-30
2022/01/22 00:20:37;;;;;;;1.38;0.90;;;;;;;;;;4987891;28;20509;-31
2022/01/22 00:23:03;;;;;;;1.88;1.10;;;;;;;;;;4987469;28;20424;-35
2022/01/22 00:25:29;;;;;;;1.05;0.80;;;;;;;;;;4987705;28;20078;-39
2022/01/22 00:27:54;;;;;;;1.92;0.90;;;;;;;;;;4987946;28;20493;-32
2022/01/22 00:30:22;;;;;;;1.40;1.10;;;;;;;;;;4987877;28;20026;-37
2022/01/22 00:32:48;;;;;;;1.35;1.00;;;;;;;;;;4987680;28;20046;-35
2022/01/22 00:35:14;;;;;;;1.55;0.98;;;;;;;;;;4987335;28;20030;-38
2022/01/22 00:37:41;;;;;;;2.17;1.00;;;;;;;;;;4987062;28;20032;-35
2022/01/22 00:40:09;;;;;;;1.63;0.85;;;;;;;;;;4987738;28;20038;-37
2022/01/22 00:42:35;;;;;;;1.73;0.90;;;;;;;;;;4987618;28;20038;-39
2022/01/22 00:45:00;;;;;;;2.33;1.10;;;;;;;;;;4987267;28;20057;-33
2022/01/22 00:47:26;;;;;;;1.85;1.13;;;;;;;;;;4987408;28;20057;-34
2022/01/22 00:49:51;;;;;;;1.40;1.02;;;;;;;;;;4987315;28;20030;-32
2022/01/22 00:52:17;;;;;;;1.75;0.98;;;;;;;;;;4986998;28;20702;-36
2022/01/22 00:54:42;;;;;;;1.45;0.98;;;;;;;;;;4987533;28;20026;-31
2022/01/22 00:57:08;;;;;;;2.13;0.90;;;;;;;;;;4987487;28;20105;-37
2022/01/22 00:59:33;;;;;;;1.55;1.00;;;;;;;;;;4987188;28;20027;-36
2022/01/22 01:01:59;;;;;;;1.50;1.00;;;;;;;;;;4987340;28;20045;-34
2022/01/22 01:04:27;;;;;;;1.40;0.98;;;;;;;;;;4986951;28;20485;-31
2022/01/22 01:06:53;;;;;;;1.55;1.00;;;;;;;;;;4985958;28;20022;-38
2022/01/22 01:09:18;;;;;;;1.38;0.85;;;;;;;;;;4986719;28;20035;-32
2022/01/22 01:11:49;;;;;;;1.77;1.10;;;;;;;;;;4986893;28;20022;-40
2022/01/22 01:14:21;;;;;;;1.10;0.80;;;;;;;;;;4987100;28;20080;-40
2022/01/22 01:33:22;;;;;;;2.22;1.02;;;;;;;;;;4986229;28;20049;-38
2022/01/22 01:35:47;;;;;;;0.90;0.70;;;;;;;;;;4986829;28;20509;-37
2022/01/22 01:38:13;;;;;;;0.90;0.63;;;;;;;;;;4986269;28;20031;-31
2022/01/22 01:40:43;;;;;;;1.52;0.70;;;;;;;;;;4986105;28;20038;-36
2022/01/22 01:43:17;;;;;;;1.30;0.75;;;;;;;;;;4986351;28;20038;-40
2022/01/22 01:45:43;;;;;;;1.58;0.80;;;;;;;;;;4984961;28;20056;-35
2022/01/22 01:48:14;;;;;;;1.65;0.80;;;;;;;;;;4986101;28;20030;-34
2022/01/22 01:50:41;;;;;;;2.22;0.90;;;;;;;;;;4985902;28;20058;-37
2022/01/22 01:56:04;;;;;;;1.60;0.90;;;;;;;;;;4986314;28;20031;-37
2022/01/22 01:58:21;;;;;;;2.22;0.85;;;;;;;;;;4986444;28;20286;-35
2022/01/22 02:00:46;;;;;;;2.08;1.00;;;;;;;;;;4985811;28;20430;-36
2022/01/22 02:03:13;;;;;;;1.40;0.73;;;;;;;;;;4985818;28;20045;-39
2022/01/22 02:05:39;;;;;;;1.30;0.70;;;;;;;;;;4986170;28;20101;-37
2022/01/22 02:08:05;;;;;;;1.88;1.00;;;;;;;;;;4985907;28;20450;-33
2022/01/22 02:10:34;;;;;;;1.95;0.95;;;;;;;;;;4984818;28;20110;-33
2022/01/22 02:13:41;;;;;;;1.42;0.70;;;;;;;;;;4985804;28;20109;-38
2022/01/22 02:23:59;;;;;;;1.02;0.70;;;;;;;;;;4986019;28;20441;-37
2022/01/22 02:26:24;;;;;;;1.27;0.80;;;;;;;;;;4985570;28;20030;-32
2022/01/22 02:28:51;;;;;;;1.92;1.00;;;;;;;;;;4985601;28;20026;-37
2022/01/22 02:34:01;;;;;;;1.20;0.75;;;;;;;;;;4985399;28;20141;-37
2022/01/22 02:36:33;;;;;;;1.13;0.70;;;;;;;;;;4984946;28;20105;-35
2022/01/22 02:41:26;;;;;;;1.40;0.80;;;;;;;;;;4989825;28;20034;-39
2022/01/22 02:43:53;;;;;;;1.75;0.90;;;;;;;;;;4991997;28;20536;-35
2022/01/22 02:46:20;;;;;;;2.88;0.90;;;;;;;;;;4991843;28;20072;-39
2022/01/22 02:48:46;;;;;;;1.75;0.63;;;;;;;;;;4992228;28;20113;-37
2022/01/22 02:51:12;;;;;;;1.50;0.70;;;;;;;;;;4991595;28;20662;-33
2022/01/22 02:53:37;;;;;;;1.45;0.80;;;;;;;;;;4991512;28;20030;-35
2022/01/22 02:56:03;;;;;;;0.95;0.80;;;;;;;;;;4991991;28;20053;-36
2022/01/22 02:58:29;;;;;;;0.80;0.70;;;;;;;;;;5007127;28;20044;-38
2022/01/22 03:00:54;;;;;;;1.77;0.70;;;;;;;;;;5011403;28;20034;-36
2022/01/22 03:03:20;;;;;;;1.15;0.88;;;;;;;;;;5011379;28;20416;-36
2022/01/22 03:05:46;;;;;;;1.45;0.70;;;;;;;;;;5011476;28;20084;-35
2022/01/22 03:08:13;;;;;;;1.52;0.85;;;;;;;;;;5011260;28;20045;-37
2022/01/22 03:10:39;;;;;;;1.27;0.68;;;;;;;;;;5011365;28;20128;-40
2022/01/22 03:13:25;;;;;;;1.42;0.77;;;;;;;;;;5011056;28;20033;-39
2022/01/22 03:21:56;;;;;;;1.85;0.75;;;;;;;;;;5011182;28;20034;-37
2022/01/22 03:29:20;;;;;;;1.50;0.88;;;;;;;;;;5010825;28;20064;-33
2022/01/22 03:31:46;;;;;;;1.27;0.90;;;;;;;;;;5011425;28;20022;-36
2022/01/22 03:34:11;;;;;;;1.45;0.68;;;;;;;;;;5010977;28;20077;-37
2022/01/22 03:36:37;;;;;;;0.80;0.70;;;;;;;;;;5011336;28;20055;-36
2022/01/22 03:39:04;;;;;;;2.55;1.00;;;;;;;;;;5010888;28;20017;-34
2022/01/22 03:41:29;;;;;;;1.30;0.82;;;;;;;;;;5009654;28;20106;-39
2022/01/22 03:43:56;;;;;;;1.55;0.70;;;;;;;;;;5010836;28;20504;-39
2022/01/22 03:46:21;;;;;;;0.82;0.68;;;;;;;;;;5011046;28;20616;-37
2022/01/22 03:48:47;;;;;;;0.90;0.60;;;;;;;;;;5010982;28;20065;-36
2022/01/22 03:51:13;;;;;;;1.00;0.80;;;;;;;;;;5010865;28;20036;-34
2022/01/22 03:53:38;;;;;;;2.15;0.70;;;;;;;;;;5007661;28;20037;-34
2022/01/22 03:56:06;;;;;;;1.60;0.82;;;;;;;;;;5007809;28;20477;-37
2022/01/22 03:58:32;;;;;;;1.08;0.57;;;;;;;;;;4991250;28;20109;-36
2022/01/22 04:03:46;;;;;;;1.30;0.70;;;;;;;;;;4988282;28;20045;-38
2022/01/22 04:08:38;;;;;;;1.73;0.88;;;;;;;;;;4988244;28;20084;-36
2022/01/22 04:11:08;;;;;;;1.42;0.80;;;;;;;;;;4988213;28;20042;-37
2022/01/22 04:13:35;;;;;;;1.35;0.60;;;;;;;;;;4988429;28;20034;-33
2022/01/22 04:16:00;;;;;;;1.42;0.70;;;;;;;;;;4987939;28;20033;-37
2022/01/22 04:26:52;;;;;;;0.88;0.40;;;;;;;;;;4987670;28;20077;-37
2022/01/22 04:29:19;;;;;;;1.25;0.70;;;;;;;;;;4987441;28;20038;-39
2022/01/22 04:31:45;;;;;;;2.30;0.88;;;;;;;;;;4987493;28;20791;-36
2022/01/22 04:34:10;;;;;;;0.75;0.52;;;;;;;;;;4987381;28;20046;-40
2022/01/22 04:36:36;;;;;;;1.85;0.75;;;;;;;;;;4987923;28;20418;-35
2022/01/22 04:39:02;;;;;;;1.52;0.63;;;;;;;;;;4986969;28;20026;-34
2022/01/22 04:41:27;;;;;;;0.93;0.55;;;;;;;;;;4986162;28;20049;-34
2022/01/22 04:43:59;;;;;;;1.35;0.77;;;;;;;;;;4987468;28;20448;-34
2022/01/22 04:46:37;;;;;;;1.15;0.60;;;;;;;;;;4987583;28;20030;-40
2022/01/22 04:52:27;;;;;;;0.80;0.68;;;;;;;;;;4987486;28;20022;-37
2022/01/22 04:54:58;;;;;;;0.93;0.63;;;;;;;;;;4987397;28;20053;-36
2022/01/22 04:57:24;;;;;;;1.27;0.60;;;;;;;;;;4987680;28;20157;-33
2022/01/22 04:59:50;;;;;;;1.00;0.60;;;;;;;;;;4986965;28;20083;-36
2022/01/22 05:02:15;;;;;;;1.05;0.65;;;;;;;;;;4986904;28;20030;-36
2022/01/22 05:04:41;;;;;;;2.10;0.85;;;;;;;;;;4986018;28;20029;-38
2022/01/22 05:07:06;;;;;;;1.40;0.82;;;;;;;;;;4986669;28;20568;-31
2022/01/22 05:09:32;;;;;;;0.80;0.50;;;;;;;;;;4986962;28;20463;-40
2022/01/22 05:11:57;;;;;;;1.42;0.90;;;;;;;;;;4986975;28;20186;-34
2022/01/22 05:14:26;;;;;;;0.52;0.40;;;;;;;;;;4986936;28;20042;-34
2022/01/22 05:16:54;;;;;;;0.90;0.75;;;;;;;;;;4987053;28;20027;-38
2022/01/22 05:19:27;;;;;;;1.10;0.70;;;;;;;;;;4986512;28;20030;-31
2022/01/22 05:21:57;;;;;;;1.08;0.63;;;;;;;;;;4986795;28;20161;-34
2022/01/22 05:24:27;;;;;;;1.10;0.70;;;;;;;;;;4986878;28;20121;-36
2022/01/22 05:27:24;;;;;;;1.17;0.80;;;;;;;;;;4986731;28;20057;-33
2022/01/22 05:30:11;;;;;;;1.67;0.95;;;;;;;;;;4986669;28;20045;-31
2022/01/22 05:32:55;;;;;;;0.77;0.60;;;;;;;;;;4986233;28;20030;-40
2022/01/22 05:38:06;;;;;;;1.00;0.70;;;;;;;;;;4986424;28;20037;-36
2022/01/22 05:40:32;;;;;;;1.60;0.80;;;;;;;;;;4986245;28;20042;-39
2022/01/22 05:42:57;;;;;;;1.50;0.82;;;;;;;;;;4986447;28;20030;-40
2022/01/22 05:45:23;;;;;;;2.03;0.90;;;;;;;;;;4986215;28;20030;-32
2022/01/22 05:47:49;;;;;;;1.20;0.70;;;;;;;;;;4986217;28;20080;-35
2022/01/22 05:50:28;;;;;;;1.90;0.80;;;;;;;;;;4986017;28;20068;-31
2022/01/22 05:52:58;;;;;;;1.55;0.90;;;;;;;;;;4986283;28;20104;-37
2022/01/22 05:55:41;;;;;;;1.10;0.70;;;;;;;;;;4985709;28;20031;-33
2022/01/22 06:00:58;;;;;;;1.42;0.75;;;;;;;;;;4984793;28;20638;-38
2022/01/22 06:03:24;;;;;;;1.30;0.77;;;;;;;;;;4984290;28;20026;-39
2022/01/22 06:05:49;;;;;;;0.93;0.63;;;;;;;;;;4986320;28;20045;-40
2022/01/22 06:08:17;;;;;;;0.95;0.68;;;;;;;;;;4985988;28;20041;-37
2022/01/22 06:10:45;;;;;;;1.23;0.68;;;;;;;;;;4986083;28;20042;-36
2022/01/22 06:15:36;;;;;;;1.08;0.82;;;;;;;;;;4985592;28;20382;-33
2022/01/22 06:18:02;;;;;;;1.17;0.73;;;;;;;;;;4984202;28;20034;-35
2022/01/22 06:20:27;;;;;;;1.65;0.98;;;;;;;;;;4985477;28;20030;-39
2022/01/22 06:22:53;;;;;;;1.25;0.73;;;;;;;;;;4985866;28;20023;-37
2022/01/22 06:25:18;;;;;;;0.85;0.70;;;;;;;;;;4985121;28;20038;-37
2022/01/22 06:27:44;;;;;;;1.50;0.95;;;;;;;;;;4986022;28;20030;-36
2022/01/22 06:30:10;;;;;;;1.65;0.90;;;;;;;;;;4985711;28;20504;-38
2022/01/22 06:32:35;;;;;;;1.60;0.80;;;;;;;;;;4985808;28;20026;-39
2022/01/22 06:35:01;;;;;;;2.15;0.90;;;;;;;;;;4985351;28;20026;-34
2022/01/22 06:37:26;;;;;;;1.77;0.95;;;;;;;;;;4985407;28;20060;-37
2022/01/22 06:42:33;;;;;;;1.02;0.80;;;;;;;;;;4985451;28;20110;-36
2022/01/22 06:44:59;;;;;;;1.55;0.70;;;;;;;;;;4985300;28;20507;-33
2022/01/22 06:47:24;;;;;;;2.35;0.77;;;;;;;;;;4984024;28;20030;-37
2022/01/22 06:49:50;;;;;;;1.10;0.73;;;;;;;;;;4985418;28;20030;-31
2022/01/22 06:52:15;;;;;;;1.63;1.00;;;;;;;;;;4985096;28;20033;-36
2022/01/22 06:54:42;;;;;;;2.03;0.90;;;;;;;;;;4985571;28;20316;-37
2022/01/22 06:57:08;;;;;;;2.25;1.00;;;;;;;;;;4986086;28;20026;-39
2022/01/22 06:59:33;;;;;;;1.35;0.80;;;;;;;;;;4985279;28;20085;-37
2022/01/22 07:01:59;;;;;;;1.27;0.80;;;;;;;;;;4985304;28;20022;-37
2022/01/22 07:04:24;;;;;;;0.80;0.63;;;;;;;;;;4985074;28;20097;-34
2022/01/22 07:06:50;;;;;;;1.23;0.80;;;;;;;;;;4985213;28;20038;-36
2022/01/22 07:09:15;;;;;;;1.42;0.90;;;;;;;;;;4985137;28;20026;-35
2022/01/22 07:11:41;;;;;;;1.23;0.80;;;;;;;;;;4984933;28;20444;-38
2022/01/22 07:14:06;;;;;;;1.15;0.90;;;;;;;;;;4985115;28;20031;-35
2022/01/22 07:16:32;;;;;;;1.30;1.00;;;;;;;;;;4985289;28;20416;-33
2022/01/22 07:19:01;;;;;;;1.50;0.90;;;;;;;;;;4985017;28;20081;-38
2022/01/22 07:21:29;;;;;;;1.85;0.90;;;;;;;;;;4985307;28;20092;-36
2022/01/22 07:26:29;;;;;;;1.25;0.93;;;;;;;;;;4984980;28;20109;-38
2022/01/22 07:28:55;;;;;;;1.60;0.90;;;;;;;;;;4988109;28;20038;-37
2022/01/22 07:31:21;;;;;;;1.10;0.90;;;;;;;;;;4988387;28;20028;-37
2022/01/22 07:33:47;;;;;;;1.67;0.93;;;;;;;;;;4988471;28;20066;-37
2022/01/22 07:36:12;;;;;;;0.80;0.63;;;;;;;;;;4988338;28;20041;-39
2022/01/22 07:38:39;;;;;;;2.13;0.90;;;;;;;;;;4988792;28;20026;-39
2022/01/22 07:41:07;;;;;;;1.15;0.80;;;;;;;;;;4988268;28;20041;-38
2022/01/22 07:43:32;;;;;;;1.27;0.90;;;;;;;;;;4988530;28;20042;-40
2022/01/22 07:45:58;;;;;;;1.30;0.93;;;;;;;;;;4988544;28;20019;-38
2022/01/22 07:48:23;;;;;;;1.20;0.90;;;;;;;;;;4988382;28;20501;-33
2022/01/22 07:50:49;;;;;;;1.65;1.05;;;;;;;;;;4988726;28;20485;-34
2022/01/22 07:53:14;;;;;;;1.50;0.82;;;;;;;;;;4988293;28;20053;-36
2022/01/22 07:55:40;;;;;;;1.30;0.85;;;;;;;;;;4988331;28;20382;-39
2022/01/22 07:58:06;;;;;;;0.93;0.68;;;;;;;;;;5005716;28;20026;-37
2022/01/22 08:00:31;;;;;;;1.30;0.80;;;;;;;;;;5007696;28;20029;-35
2022/01/22 08:02:57;;;;;;;1.27;1.00;;;;;;;;;;5007519;28;20072;-36
2022/01/22 08:05:23;;;;;;;1.23;0.80;;;;;;;;;;5007800;28;20052;-40
2022/01/22 08:07:48;;;;;;;1.38;0.95;;;;;;;;;;5007465;28;20453;-38
2022/01/22 08:10:16;;;;;;;1.20;0.90;;;;;;;;;;5007832;28;20037;-38
2022/01/22 08:12:42;;;;;;;1.17;0.85;;;;;;;;;;5007587;28;20518;-35
2022/01/22 08:15:09;;;;;;;1.23;1.02;;;;;;;;;;5007322;28;20034;-37
2022/01/22 08:17:35;;;;;;;1.33;0.90;;;;;;;;;;5007368;28;20030;-37
2022/01/22 08:20:00;;;;;;;1.48;0.85;;;;;;;;;;5007285;28;20064;-36
2022/01/22 08:22:26;;;;;;;1.90;1.00;;;;;;;;;;5007627;28;20030;-33
2022/01/22 08:24:54;;;;;;;1.92;1.10;;;;;;;;;;5007524;28;20105;-40
2022/01/22 08:29:48;;;;;;;1.50;0.90;;;;;;;;;;5006050;28;20060;-34
2022/01/22 08:37:26;;;;;;;2.25;1.20;;;;;;;;;;5007073;28;20037;-38
2022/01/22 08:39:52;;;;;;;1.90;1.48;;;;;;;;;;5006910;28;20037;-36
2022/01/22 08:42:17;;;;;;;1.42;1.10;;;;;;;;;;5006910;28;20046;-37
2022/01/22 08:44:43;;;;;;;1.80;1.30;;;;;;;;;;5007333;28;20034;-37
2022/01/22 08:47:08;;;;;;;1.98;1.30;;;;;;;;;;5007136;28;20118;-38
2022/01/22 08:49:34;;;;;;;1.55;1.00;;;;;;;;;;5007142;28;20057;-34
2022/01/22 08:52:01;;;;;;;1.73;1.20;;;;;;;;;;5007143;28;20033;-37
2022/01/22 08:54:26;;;;;;;1.83;1.48;;;;;;;;;;5006809;28;20044;-38
2022/01/22 08:56:52;;;;;;;1.63;1.23;;;;;;;;;;5005974;28;20037;-37
2022/01/22 08:59:17;;;;;;;2.40;1.67;;;;;;;;;;5006514;28;20029;-37
2022/01/22 09:01:43;;;;;;;2.63;1.50;;;;;;;;;;5006802;28;20037;-35
2022/01/22 09:04:09;;;;;;;2.65;1.48;;;;;;;;;;5006867;28;20041;-34
2022/01/22 09:06:35;;;;;;;2.65;1.45;;;;;;;;;;5006562;28;20034;-39
2022/01/22 09:09:11;;;;;;;2.38;1.40;;;;;;;;;;5006701;28;20193;-33
2022/01/22 09:11:38;;;;;;;1.85;1.42;;;;;;;;;;5006568;28;20105;-32
2022/01/22 09:14:04;;;;;;;2.65;1.60;;;;;;;;;;5006441;28;20032;-38
2022/01/22 09:16:30;;;;;;;2.65;1.92;;;;;;;;;;5006603;28;20101;-33
2022/01/22 09:18:58;;;;;;;2.58;1.80;;;;;;;;;;5006153;28;20116;-35
2022/01/22 09:21:24;;;;;;;2.17;1.58;;;;;;;;;;5006303;28;20496;-33
2022/01/22 09:23:49;;;;;;;2.33;1.77;;;;;;;;;;5006459;28;20044;-38
2022/01/22 09:26:15;;;;;;;2.47;1.90;;;;;;;;;;5006073;28;20050;-34
2022/01/22 09:28:42;;;;;;;2.85;1.70;;;;;;;;;;5006010;28;20033;-34
2022/01/22 09:31:08;;;;;;;3.95;2.20;;;;;;;;;;5006081;28;20037;-40
2022/01/22 09:33:33;;;;;;;3.00;1.98;;;;;;;;;;5006134;28;20050;-33
2022/01/22 09:35:59;;;;;;;3.13;2.42;;;;;;;;;;5006090;28;20428;-39
2022/01/22 09:38:24;;;;;;;3.33;1.80;;;;;;;;;;5005941;28;20029;-37
2022/01/22 09:40:50;;;;;;;3.13;2.22;;;;;;;;;;5005605;28;20570;-37
2022/01/22 09:43:15;;;;;;;3.33;2.30;;;;;;;;;;5005600;28;20050;-39
2022/01/22 09:45:41;;;;;;;4.82;2.00;;;;;;;;;;5006304;28;20087;-38
2022/01/22 09:48:06;;;;;;;4.32;2.63;;;;;;;;;;5005915;28;20362;-38
2022/01/22 09:50:32;;;;;;;2.88;2.28;;;;;;;;;;5005018;28;20034;-33
2022/01/22 09:52:58;;;;;;;3.58;2.50;;;;;;;;;;5005135;28;20026;-39
2022/01/22 09:55:24;;;;;;;4.35;3.05;;;;;;;;;;5005758;28;20034;-39
2022/01/22 09:57:50;;;;;;;3.65;2.53;;;;;;;;;;4987814;28;20114;-36
2022/01/22 10:00:18;;;;;;;3.55;2.78;;;;;;;;;;4986181;28;20038;-39
2022/01/22 10:02:48;;;;;;;3.42;2.67;;;;;;;;;;4985839;28;20038;-34
2022/01/22 10:05:30;;;;;;;4.20;2.80;;;;;;;;;;4985849;28;20505;-33
2022/01/22 10:08:20;;;;;;;3.85;2.67;;;;;;;;;;4985628;28;20033;-32
2022/01/22 10:10:46;;;;;;;3.08;2.40;;;;;;;;;;4985829;28;20062;-38
2022/01/22 10:13:12;;;;;;;4.93;3.00;;;;;;;;;;5000926;28;20109;-39
2022/01/22 10:15:39;;;;;;;4.45;2.80;;;;;;;;;;4985874;28;20520;-39
2022/01/22 10:18:05;;;;;;;3.83;2.75;;;;;;;;;;4985729;28;20070;-35
2022/01/22 10:20:38;;;;;;;4.10;2.85;;;;;;;;;;4985745;28;20115;-34
2022/01/22 10:23:09;;;;;;;3.65;2.67;;;;;;;;;;4985609;28;20233;-37
2022/01/22 10:25:37;;;;;;;4.18;2.90;;;;;;;;;;4985772;28;20505;-35
2022/01/22 10:28:03;;;;;;;4.93;2.88;;;;;;;;;;4985648;28;20050;-37
2022/01/22 10:30:38;;;;;;;2.80;2.35;;;;;;;;;;4985746;28;20030;-36
2022/01/22 10:33:32;;;;;;;3.00;2.45;;;;;;;;;;4985469;28;20097;-32
2022/01/22 10:36:19;;;;;;;3.63;2.67;;;;;;;;;;4985954;28;20026;-33
2022/01/22 10:38:52;;;;;;;3.50;2.70;;;;;;;;;;4985683;28;20069;-37
2022/01/22 10:41:20;;;;;;;;;;;;;;;;;;4985900;28;20045;-33
2022/01/22 10:43:51;;;;;;;4.10;2.70;;;;;;;;;;4985442;28;19926;-36
2022/01/22 10:46:31;;;;;;;3.90;2.67;;;;;;;;;;4985194;28;20157;-33
2022/01/22 10:48:56;;;;;;;2.90;2.33;;;;;;;;;;4985130;28;20893;-38
2022/01/22 10:51:22;;;;;;;3.40;2.28;;;;;;;;;;4985238;28;20105;-34
2022/01/22 10:53:50;;;;;;;3.17;2.55;;;;;;;;;;4985389;28;20023;-33
2022/01/22 10:56:21;;;;;;;3.50;2.60;;;;;;;;;;4985868;28;20080;-37
2022/01/22 10:58:52;;;;;;;3.25;2.35;;;;;;;;;;4985552;28;20046;-37
2022/01/22 11:01:17;;;;;;;3.58;2.47;;;;;;;;;;4985478;28;20029;-35
2022/01/22 11:03:43;;;;;;;3.40;2.30;;;;;;;;;;4989220;28;20022;-36
2022/01/22 11:06:23;;;;;;;2.83;2.10;;;;;;;;;;4989395;28;20041;-40
2022/01/22 11:08:48;;;;;;;3.38;2.15;;;;;;;;;;5002769;28;20065;-36
2022/01/22 11:11:14;;;;;;;3.45;2.38;;;;;;;;;;4989076;28;20125;-38
2022/01/22 11:13:39;;;;;;;4.22;2.50;;;;;;;;;;4989335;28;20037;-39
2022/01/22 11:16:05;;;;;;;3.10;2.35;;;;;;;;;;4988799;28;20489;-32
2022/01/22 11:18:30;;;;;;;3.40;2.50;;;;;;;;;;4989066;28;20117;-35
2022/01/22 11:20:56;;;;;;;3.25;2.33;;;;;;;;;;4988802;28;20022;-33
2022/01/22 11:23:21;;;;;;;3.78;2.33;;;;;;;;;;4988861;28;20062;-37
2022/01/22 11:25:47;;;;;;;2.67;2.28;;;;;;;;;;4989156;28;20040;-39
2022/01/22 11:28:12;;;;;;;3.45;2.38;;;;;;;;;;4989213;28;20050;-35
2022/01/22 11:30:38;;;;;;;4.05;2.50;;;;;;;;;;4987667;28;20015;-34
2022/01/22 11:33:06;;;;;;;2.75;2.08;;;;;;;;;;4987304;28;20072;-32
2022/01/22 11:35:48;;;;;;;3.28;2.33;;;;;;;;;;4988834;28;20035;-36
2022/01/22 11:38:16;;;;;;;3.10;2.10;;;;;;;;;;4988658;28;20120;-39
2022/01/22 11:40:43;;;;;;;2.58;2.13;;;;;;;;;;4987431;28;20484;-40
2022/01/22 11:43:19;;;;;;;3.13;2.20;;;;;;;;;;4988551;28;20031;-38
2022/01/22 11:45:54;;;;;;;4.10;2.50;;;;;;;;;;4987188;28;20421;-35
2022/01/22 11:48:32;;;;;;;3.28;2.20;;;;;;;;;;4988384;28;20124;-40
2022/01/22 11:51:22;;;;;;;2.58;2.00;;;;;;;;;;4988708;28;20117;-34
2022/01/22 11:53:55;;;;;;;3.63;2.22;;;;;;;;;;4988537;28;20180;-37
2022/01/22 11:56:27;;;;;;;2.80;2.25;;;;;;;;;;4987787;28;20038;-35
2022/01/22 11:58:56;;;;;;;3.42;2.30;;;;;;;;;;4988381;28;20097;-36
2022/01/22 12:01:45;;;;;;;3.22;2.28;;;;;;;;;;4987848;28;20096;-37
2022/01/22 12:04:11;;;;;;;2.70;1.92;;;;;;;;;;4988241;28;20035;-30
2022/01/22 12:06:37;;;;;;;3.17;1.92;;;;;;;;;;4987183;28;20026;-39
2022/01/22 12:09:15;;;;;;;3.35;2.15;;;;;;;;;;4988157;28;20041;-36
2022/01/22 12:14:58;;;;;;;3.30;2.40;;;;;;;;;;4987508;28;20045;-36
2022/01/22 12:18:18;;;;;;;2.75;2.10;;;;;;;;;;4987271;28;20273;-36
2022/01/22 12:23:14;;;;;;;3.13;2.25;;;;;;;;;;4987814;28;20057;-38
2022/01/22 12:25:39;;;;;;;2.78;1.90;;;;;;;;;;4987939;28;20056;-39
2022/01/22 12:28:08;;;;;;;3.33;2.33;;;;;;;;;;4987595;28;20742;-35
2022/01/22 12:30:48;;;;;;;2.53;1.73;;;;;;;;;;4987710;28;20026;-38
2022/01/22 12:33:16;;;;;;;2.30;1.85;;;;;;;;;;4987598;28;20050;-34
2022/01/22 12:35:43;;;;;;;2.65;1.95;;;;;;;;;;4987942;28;20041;-37
2022/01/22 12:38:33;;;;;;;3.30;2.10;;;;;;;;;;4987586;28;20034;-38
2022/01/22 12:41:27;;;;;;;2.53;1.73;;;;;;;;;;4987261;28;20101;-39
2022/01/22 12:44:35;;;;;;;3.15;2.00;;;;;;;;;;4987988;28;20042;-35
2022/01/22 12:47:08;;;;;;;3.00;2.03;;;;;;;;;;4987388;28;20036;-37
2022/01/22 12:49:34;;;;;;;;;;;;;;;;;;4987541;28;20101;-36
2022/01/22 12:52:01;;;;;;;2.53;1.80;;;;;;;;;;4987020;28;19929;-39
2022/01/22 12:54:31;;;;;;;2.20;1.85;;;;;;;;;;4987220;28;20030;-35
2022/01/22 12:57:15;;;;;;;2.60;1.88;;;;;;;;;;4987839;28;20033;-32
2022/01/22 13:00:09;;;;;;;2.35;1.80;;;;;;;;;;4987271;28;20513;-36
2022/01/22 13:02:42;;;;;;;2.15;1.67;;;;;;;;;;4999350;28;20034;-40
2022/01/22 13:05:09;;;;;;;2.78;1.95;;;;;;;;;;5002237;28;20539;-36
2022/01/22 13:07:42;;;;;;;2.38;1.70;;;;;;;;;;4987129;28;20026;-37
2022/01/22 13:10:09;;;;;;;2.78;2.03;;;;;;;;;;4986980;28;20199;-37
2022/01/22 13:12:36;;;;;;;2.25;1.80;;;;;;;;;;4987139;28;20022;-36
2022/01/22 13:15:01;;;;;;;1.95;1.50;;;;;;;;;;4987034;28;20058;-36
2022/01/22 13:17:29;;;;;;;2.83;1.80;;;;;;;;;;4987258;28;20083;-36
2022/01/22 13:19:55;;;;;;;3.28;1.92;;;;;;;;;;4987081;28;20026;-38
2022/01/22 13:22:20;;;;;;;3.65;2.10;;;;;;;;;;4986969;28;20034;-36
2022/01/22 13:24:46;;;;;;;2.88;1.80;;;;;;;;;;4983954;28;20084;-39
2022/01/22 13:27:15;;;;;;;3.05;1.98;;;;;;;;;;4985943;28;20437;-40
2022/01/22 13:29:43;;;;;;;2.30;1.65;;;;;;;;;;4986694;28;20117;-39
2022/01/22 13:38:25;;;;;;;2.42;1.80;;;;;;;;;;4986655;28;20088;-40
2022/01/22 13:49:10;;;;;;;3.28;1.90;;;;;;;;;;4998204;28;20085;-38
2022/01/22 13:51:37;;;;;;;3.00;1.92;;;;;;;;;;4986447;28;20174;-38
2022/01/22 13:54:03;;;;;;;2.40;1.80;;;;;;;;;;5000808;28;20077;-35
2022/01/22 13:56:50;;;;;;;2.08;1.58;;;;;;;;;;4986668;28;20077;-34
2022/01/22 13:59:21;;;;;;;2.63;1.90;;;;;;;;;;4985956;28;20062;-39
2022/01/22 14:05:03;;;;;;;2.10;1.60;;;;;;;;;;4986306;28;20033;-37
2022/01/22 14:07:43;;;;;;;2.22;1.70;;;;;;;;;;4989525;28;20511;-33
2022/01/22 14:10:19;;;;;;;2.70;1.88;;;;;;;;;;4985838;28;20037;-40
2022/01/22 14:12:48;;;;;;;2.05;1.50;;;;;;;;;;4985840;28;20034;-33
2022/01/22 14:15:23;;;;;;;2.95;2.05;;;;;;;;;;4985242;28;20955;-38
2022/01/22 14:20:32;;;;;;;2.55;1.67;;;;;;;;;;4986076;28;20049;-33
2022/01/22 14:23:01;;;;;;;4.03;2.20;;;;;;;;;;4985701;28;20034;-35
2022/01/22 14:25:26;;;;;;;3.53;2.17;;;;;;;;;;4986086;28;20100;-36
2022/01/22 14:27:59;;;;;;;2.33;2.00;;;;;;;;;;4985744;28;20488;-34
2022/01/22 14:30:40;;;;;;;3.17;2.20;;;;;;;;;;4986015;28;20026;-38
2022/01/22 14:33:07;;;;;;;3.33;2.08;;;;;;;;;;4985521;28;20229;-40
2022/01/22 14:35:32;;;;;;;3.22;1.98;;;;;;;;;;4986050;28;20034;-35
2022/01/22 14:38:35;;;;;;;2.78;2.03;;;;;;;;;;4985169;28;20237;-35
2022/01/22 14:46:46;;;;;;;2.55;2.00;;;;;;;;;;4985650;28;20034;-39
2022/01/22 14:49:12;;;;;;;4.05;2.65;;;;;;;;;;4985562;28;20034;-36
2022/01/22 14:51:38;;;;;;;3.15;2.13;;;;;;;;;;4984064;28;20490;-36
2022/01/22 14:54:04;;;;;;;2.95;2.33;;;;;;;;;;5000322;28;20096;-38
2022/01/22 14:56:29;;;;;;;3.25;2.05;;;;;;;;;;4985794;28;20105;-38
2022/01/22 14:58:55;;;;;;;3.30;2.33;;;;;;;;;;4985411;28;20093;-38
2022/01/22 15:01:20;;;;;;;4.35;2.40;;;;;;;;;;4985512;28;20068;-33
2022/01/22 15:03:46;;;;;;;3.65;2.50;;;;;;;;;;4985484;28;20023;-33
2022/01/22 15:06:11;;;;;;;3.65;2.38;;;;;;;;;;4985560;28;20116;-36
2022/01/22 15:08:36;;;;;;;3.10;2.08;;;;;;;;;;4985319;28;20097;-36
2022/01/22 15:11:02;;;;;;;3.30;2.10;;;;;;;;;;4985017;28;20061;-39
2022/01/22 15:13:27;;;;;;;3.45;2.08;;;;;;;;;;4984059;28;20177;-35
2022/01/22 15:15:58;;;;;;;2.97;1.92;;;;;;;;;;4985191;28;20037;-36
2022/01/22 15:21:08;;;;;;;3.88;2.45;;;;;;;;;;4984933;28;20424;-38
2022/01/22 15:23:34;;;;;;;3.60;2.45;;;;;;;;;;4984798;28;20019;-39
2022/01/22 15:25:59;;;;;;;3.40;2.03;;;;;;;;;;4985165;28;20050;-34
2022/01/22 15:28:31;;;;;;;2.92;2.10;;;;;;;;;;4985238;28;20023;-38
2022/01/22 15:30:57;;;;;;;3.63;2.30;;;;;;;;;;4985236;28;20110;-37
2022/01/22 15:33:35;;;;;;;4.45;2.33;;;;;;;;;;4985086;28;20157;-39
2022/01/22 15:36:00;;;;;;;3.13;2.40;;;;;;;;;;4984855;28;20077;-41
2022/01/22 15:38:26;;;;;;;2.97;2.15;;;;;;;;;;4985240;28;20489;-40
2022/01/22 15:40:51;;;;;;;3.75;2.55;;;;;;;;;;4984957;28;20155;-37
2022/01/22 15:43:17;;;;;;;4.25;2.70;;;;;;;;;;4984771;28;20037;-37
2022/01/22 15:45:42;;;;;;;3.42;2.38;;;;;;;;;;4985382;28;20141;-40
2022/01/22 15:48:08;;;;;;;3.58;2.13;;;;;;;;;;4985184;28;20030;-36
2022/01/22 15:50:34;;;;;;;4.88;2.55;;;;;;;;;;4988540;28;20038;-38
2022/01/22 15:53:00;;;;;;;3.42;2.30;;;;;;;;;;4986970;28;20077;-31
2022/01/22 15:55:25;;;;;;;3.80;2.38;;;;;;;;;;4987608;28;20665;-37
2022/01/22 15:57:51;;;;;;;3.85;2.67;;;;;;;;;;4988568;28;20426;-36
2022/01/22 16:00:16;;;;;;;3.30;2.22;;;;;;;;;;4988098;28;20030;-40
2022/01/22 16:02:43;;;;;;;3.30;2.30;;;;;;;;;;4988174;28;20037;-33
2022/01/22 16:05:10;;;;;;;4.57;2.92;;;;;;;;;;4988091;28;20030;-34
2022/01/22 16:07:35;;;;;;;2.85;2.30;;;;;;;;;;4988082;28;20078;-39
2022/01/22 16:10:03;;;;;;;3.28;2.47;;;;;;;;;;4988017;28;20110;-40
2022/01/22 16:12:28;;;;;;;3.22;2.15;;;;;;;;;;4988340;28;20031;-35
2022/01/22 16:14:55;;;;;;;3.40;2.28;;;;;;;;;;4988300;28;20037;-36
2022/01/22 16:17:22;;;;;;;3.28;2.50;;;;;;;;;;4988126;28;20034;-34
2022/01/22 16:19:48;;;;;;;3.75;2.60;;;;;;;;;;4987684;28;20098;-40
2022/01/22 16:22:13;;;;;;;3.45;2.33;;;;;;;;;;4987557;28;20038;-36
2022/01/22 16:24:39;;;;;;;3.17;2.40;;;;;;;;;;4987939;28;20034;-37
2022/01/22 16:27:05;;;;;;;3.63;2.67;;;;;;;;;;4987664;28;20085;-32
2022/01/22 16:29:32;;;;;;;3.65;2.42;;;;;;;;;;4987636;28;20027;-31
2022/01/22 16:31:57;;;;;;;3.92;2.63;;;;;;;;;;5002641;28;20536;-32
2022/01/22 16:34:23;;;;;;;3.90;2.55;;;;;;;;;;4987545;28;20050;-35
2022/01/22 16:36:48;;;;;;;3.92;2.38;;;;;;;;;;4986309;28;20068;-35
2022/01/22 16:39:14;;;;;;;3.60;2.70;;;;;;;;;;4987266;28;20030;-35
2022/01/22 16:41:40;;;;;;;4.38;3.10;;;;;;;;;;4986595;28;20041;-34
2022/01/22 16:44:23;;;;;;;3.92;2.70;;;;;;;;;;4987564;28;20546;-33
2022/01/22 16:51:19;;;;;;;3.33;2.42;;;;;;;;;;4987163;28;20037;-34
2022/01/22 16:53:41;;;;;;;3.13;2.40;;;;;;;;;;4987655;28;20107;-35